sensor_id;sensor_type;location;lat;lon;timestamp;P1;durP1;ratioP1;P2;durP2;ratioP2
23670;SDS011;12012;51.998;7.614;2023-03-23T00:00:04;16.27;;;11.13;;
23670;SDS011;12012;51.998;7.614;2023-03-23T00:02:31;16.55;;;9.95;;
23670;SDS011;12012;51.998;7.614;2023-03-23T00:05:00;16.35;;;11.38;;
23670;SDS011;12012;51.998;7.614;2023-03-23T00:07:31;15.98;;;11.88;;
23670;SDS011;12012;51.998;7.614;2023-03-23T00:09:58;16.40;;;11.75;;
23670;SDS011;12012;51.998;7.614;2023-03-23T00:12:24;18.83;;;10.75;;
23670;SDS011;12012;51.998;7.614;2023-03-23T00:14:58;15.82;;;11.60;;
23670;SDS011;12012;51.998;7.614;2023-03-23T00:17:31;21.45;;;12.85;;
23670;SDS011;12012;51.998;7.614;2023-03-23T00:20:00;17.15;;;11.52;;
23670;SDS011;12012;51.998;7.614;2023-03-23T00:22:29;18.58;;;12.73;;
23670;SDS011;12012;51.998;7.614;2023-03-23T00:24:55;17.95;;;12.35;;
23670;SDS011;12012;51.998;7.614;2023-03-23T00:27:21;19.40;;;12.80;;
23670;SDS011;12012;51.998;7.614;2023-03-23T00:29:50;20.92;;;12.70;;
23670;SDS011;12012;51.998;7.614;2023-03-23T00:32:20;16.63;;;12.07;;
23670;SDS011;12012;51.998;7.614;2023-03-23T00:37:17;17.42;;;10.98;;
23670;SDS011;12012;51.998;7.614;2023-03-23T00:39:44;19.42;;;10.85;;
23670;SDS011;12012;51.998;7.614;2023-03-23T00:42:11;19.55;;;11.63;;
23670;SDS011;12012;51.998;7.614;2023-03-23T00:44:39;16.23;;;11.32;;
23670;SDS011;12012;51.998;7.614;2023-03-23T00:47:05;18.20;;;10.65;;
23670;SDS011;12012;51.998;7.614;2023-03-23T00:49:33;12.75;;;10.23;;
23670;SDS011;12012;51.998;7.614;2023-03-23T00:52:02;14.10;;;10.60;;
23670;SDS011;12012;51.998;7.614;2023-03-23T00:54:29;14.18;;;9.18;;
23670;SDS011;12012;51.998;7.614;2023-03-23T00:56:55;16.00;;;9.48;;
23670;SDS011;12012;51.998;7.614;2023-03-23T00:59:21;14.55;;;8.75;;
23670;SDS011;12012;51.998;7.614;2023-03-23T01:01:47;14.43;;;9.02;;
23670;SDS011;12012;51.998;7.614;2023-03-23T01:04:13;14.82;;;8.45;;
23670;SDS011;12012;51.998;7.614;2023-03-23T01:06:40;12.80;;;8.60;;
23670;SDS011;12012;51.998;7.614;2023-03-23T01:09:08;13.05;;;8.57;;
23670;SDS011;12012;51.998;7.614;2023-03-23T01:11:36;13.48;;;8.40;;
23670;SDS011;12012;51.998;7.614;2023-03-23T01:14:03;14.50;;;8.73;;
23670;SDS011;12012;51.998;7.614;2023-03-23T01:16:29;13.77;;;8.02;;
23670;SDS011;12012;51.998;7.614;2023-03-23T01:18:55;12.73;;;8.70;;
23670;SDS011;12012;51.998;7.614;2023-03-23T01:21:21;15.73;;;8.43;;
23670;SDS011;12012;51.998;7.614;2023-03-23T01:23:47;14.85;;;7.80;;
23670;SDS011;12012;51.998;7.614;2023-03-23T01:26:13;13.10;;;7.45;;
23670;SDS011;12012;51.998;7.614;2023-03-23T01:28:41;13.10;;;8.88;;
23670;SDS011;12012;51.998;7.614;2023-03-23T01:31:08;13.55;;;8.07;;
23670;SDS011;12012;51.998;7.614;2023-03-23T01:33:39;10.98;;;8.57;;
23670;SDS011;12012;51.998;7.614;2023-03-23T01:36:06;13.35;;;8.80;;
23670;SDS011;12012;51.998;7.614;2023-03-23T01:38:35;11.50;;;7.80;;
23670;SDS011;12012;51.998;7.614;2023-03-23T01:41:01;11.02;;;7.85;;
23670;SDS011;12012;51.998;7.614;2023-03-23T01:43:27;16.48;;;7.88;;
23670;SDS011;12012;51.998;7.614;2023-03-23T01:45:53;10.65;;;7.60;;
23670;SDS011;12012;51.998;7.614;2023-03-23T01:48:23;13.68;;;7.20;;
23670;SDS011;12012;51.998;7.614;2023-03-23T01:50:58;9.07;;;7.00;;
23670;SDS011;12012;51.998;7.614;2023-03-23T01:53:31;13.63;;;6.65;;
23670;SDS011;12012;51.998;7.614;2023-03-23T01:56:05;11.18;;;7.05;;
23670;SDS011;12012;51.998;7.614;2023-03-23T01:58:33;9.63;;;6.18;;
23670;SDS011;12012;51.998;7.614;2023-03-23T02:01:02;10.13;;;6.60;;
23670;SDS011;12012;51.998;7.614;2023-03-23T02:03:31;8.73;;;5.88;;
23670;SDS011;12012;51.998;7.614;2023-03-23T02:05:57;11.63;;;6.45;;
23670;SDS011;12012;51.998;7.614;2023-03-23T02:08:23;7.30;;;5.82;;
23670;SDS011;12012;51.998;7.614;2023-03-23T02:10:53;10.15;;;6.15;;
23670;SDS011;12012;51.998;7.614;2023-03-23T02:13:18;8.57;;;5.53;;
23670;SDS011;12012;51.998;7.614;2023-03-23T02:18:52;7.45;;;5.38;;
23670;SDS011;12012;51.998;7.614;2023-03-23T02:21:26;10.65;;;5.80;;
23670;SDS011;12012;51.998;7.614;2023-03-23T02:26:34;6.38;;;5.50;;
23670;SDS011;12012;51.998;7.614;2023-03-23T02:35:01;8.23;;;5.43;;
23670;SDS011;12012;51.998;7.614;2023-03-23T02:37:39;6.85;;;5.07;;
23670;SDS011;12012;51.998;7.614;2023-03-23T02:40:37;7.35;;;4.55;;
23670;SDS011;12012;51.998;7.614;2023-03-23T02:43:06;6.00;;;4.63;;
23670;SDS011;12012;51.998;7.614;2023-03-23T02:45:35;8.88;;;4.88;;
23670;SDS011;12012;51.998;7.614;2023-03-23T02:48:03;7.60;;;4.68;;
23670;SDS011;12012;51.998;7.614;2023-03-23T02:50:30;6.30;;;4.90;;
23670;SDS011;12012;51.998;7.614;2023-03-23T02:52:57;6.43;;;4.45;;
23670;SDS011;12012;51.998;7.614;2023-03-23T02:55:24;7.25;;;4.32;;
23670;SDS011;12012;51.998;7.614;2023-03-23T02:57:53;6.82;;;4.50;;
23670;SDS011;12012;51.998;7.614;2023-03-23T03:00:20;6.00;;;4.10;;
23670;SDS011;12012;51.998;7.614;2023-03-23T03:02:49;8.15;;;4.85;;
23670;SDS011;12012;51.998;7.614;2023-03-23T03:11:08;6.35;;;3.83;;
23670;SDS011;12012;51.998;7.614;2023-03-23T03:19:20;6.60;;;3.80;;
23670;SDS011;12012;51.998;7.614;2023-03-23T03:21:52;5.30;;;3.72;;
23670;SDS011;12012;51.998;7.614;2023-03-23T03:24:20;5.78;;;3.53;;
23670;SDS011;12012;51.998;7.614;2023-03-23T03:26:48;6.43;;;3.67;;
23670;SDS011;12012;51.998;7.614;2023-03-23T03:29:17;6.07;;;3.35;;
23670;SDS011;12012;51.998;7.614;2023-03-23T03:31:46;6.35;;;3.90;;
23670;SDS011;12012;51.998;7.614;2023-03-23T03:34:14;6.85;;;3.83;;
23670;SDS011;12012;51.998;7.614;2023-03-23T03:36:42;4.25;;;3.20;;
23670;SDS011;12012;51.998;7.614;2023-03-23T03:39:11;6.13;;;3.08;;
23670;SDS011;12012;51.998;7.614;2023-03-23T03:41:39;7.63;;;3.30;;
23670;SDS011;12012;51.998;7.614;2023-03-23T03:44:06;5.85;;;3.17;;
23670;SDS011;12012;51.998;7.614;2023-03-23T03:46:35;4.05;;;3.00;;
23670;SDS011;12012;51.998;7.614;2023-03-23T03:49:02;4.53;;;3.20;;
23670;SDS011;12012;51.998;7.614;2023-03-23T03:51:29;4.95;;;3.58;;
23670;SDS011;12012;51.998;7.614;2023-03-23T03:53:56;5.32;;;3.30;;
23670;SDS011;12012;51.998;7.614;2023-03-23T03:56:23;4.63;;;3.38;;
23670;SDS011;12012;51.998;7.614;2023-03-23T03:58:49;4.38;;;3.47;;
23670;SDS011;12012;51.998;7.614;2023-03-23T04:01:15;4.65;;;3.67;;
23670;SDS011;12012;51.998;7.614;2023-03-23T04:03:43;4.55;;;3.20;;
23670;SDS011;12012;51.998;7.614;2023-03-23T04:06:09;4.28;;;3.63;;
23670;SDS011;12012;51.998;7.614;2023-03-23T04:08:37;4.75;;;3.40;;
23670;SDS011;12012;51.998;7.614;2023-03-23T04:11:04;4.30;;;3.22;;
23670;SDS011;12012;51.998;7.614;2023-03-23T04:13:30;4.78;;;3.90;;
23670;SDS011;12012;51.998;7.614;2023-03-23T04:15:56;4.90;;;3.40;;
23670;SDS011;12012;51.998;7.614;2023-03-23T04:18:21;5.82;;;3.38;;
23670;SDS011;12012;51.998;7.614;2023-03-23T04:20:49;4.10;;;3.70;;
23670;SDS011;12012;51.998;7.614;2023-03-23T04:23:15;6.35;;;3.80;;
23670;SDS011;12012;51.998;7.614;2023-03-23T04:25:46;5.10;;;3.38;;
23670;SDS011;12012;51.998;7.614;2023-03-23T04:28:13;5.50;;;3.42;;
23670;SDS011;12012;51.998;7.614;2023-03-23T04:30:41;3.83;;;2.90;;
23670;SDS011;12012;51.998;7.614;2023-03-23T04:33:08;5.45;;;3.72;;
23670;SDS011;12012;51.998;7.614;2023-03-23T04:35:39;5.47;;;3.80;;
23670;SDS011;12012;51.998;7.614;2023-03-23T04:38:05;4.95;;;3.45;;
23670;SDS011;12012;51.998;7.614;2023-03-23T04:40:32;4.05;;;3.15;;
23670;SDS011;12012;51.998;7.614;2023-03-23T04:43:00;4.68;;;3.40;;
23670;SDS011;12012;51.998;7.614;2023-03-23T04:45:30;4.38;;;3.22;;
23670;SDS011;12012;51.998;7.614;2023-03-23T04:47:57;6.57;;;3.22;;
23670;SDS011;12012;51.998;7.614;2023-03-23T04:50:23;3.75;;;3.40;;
23670;SDS011;12012;51.998;7.614;2023-03-23T04:52:52;6.78;;;3.42;;
23670;SDS011;12012;51.998;7.614;2023-03-23T04:55:19;4.25;;;3.17;;
23670;SDS011;12012;51.998;7.614;2023-03-23T04:57:45;7.55;;;3.17;;
23670;SDS011;12012;51.998;7.614;2023-03-23T05:00:12;5.47;;;3.55;;
23670;SDS011;12012;51.998;7.614;2023-03-23T05:02:39;4.28;;;2.90;;
23670;SDS011;12012;51.998;7.614;2023-03-23T05:05:08;6.25;;;3.50;;
23670;SDS011;12012;51.998;7.614;2023-03-23T05:07:37;3.92;;;3.50;;
23670;SDS011;12012;51.998;7.614;2023-03-23T05:10:03;4.57;;;3.20;;
23670;SDS011;12012;51.998;7.614;2023-03-23T05:12:30;5.45;;;3.30;;
23670;SDS011;12012;51.998;7.614;2023-03-23T05:14:56;4.85;;;3.55;;
23670;SDS011;12012;51.998;7.614;2023-03-23T05:17:21;3.90;;;3.33;;
23670;SDS011;12012;51.998;7.614;2023-03-23T05:19:49;3.97;;;3.30;;
23670;SDS011;12012;51.998;7.614;2023-03-23T05:22:15;5.65;;;3.58;;
23670;SDS011;12012;51.998;7.614;2023-03-23T05:24:42;5.00;;;3.58;;
23670;SDS011;12012;51.998;7.614;2023-03-23T05:27:10;5.50;;;3.42;;
23670;SDS011;12012;51.998;7.614;2023-03-23T05:29:36;5.90;;;3.65;;
23670;SDS011;12012;51.998;7.614;2023-03-23T05:32:05;5.55;;;3.63;;
23670;SDS011;12012;51.998;7.614;2023-03-23T05:34:33;6.22;;;3.60;;
23670;SDS011;12012;51.998;7.614;2023-03-23T05:36:59;5.85;;;3.45;;
23670;SDS011;12012;51.998;7.614;2023-03-23T05:39:25;4.78;;;3.90;;
23670;SDS011;12012;51.998;7.614;2023-03-23T05:41:52;4.72;;;3.95;;
23670;SDS011;12012;51.998;7.614;2023-03-23T05:44:18;5.40;;;3.80;;
23670;SDS011;12012;51.998;7.614;2023-03-23T05:46:44;5.28;;;3.60;;
23670;SDS011;12012;51.998;7.614;2023-03-23T05:49:10;5.57;;;3.95;;
23670;SDS011;12012;51.998;7.614;2023-03-23T05:51:36;5.05;;;3.50;;
23670;SDS011;12012;51.998;7.614;2023-03-23T05:54:02;4.88;;;4.18;;
23670;SDS011;12012;51.998;7.614;2023-03-23T05:56:28;5.35;;;3.75;;
23670;SDS011;12012;51.998;7.614;2023-03-23T05:58:55;6.45;;;4.30;;
23670;SDS011;12012;51.998;7.614;2023-03-23T06:01:21;6.45;;;4.97;;
23670;SDS011;12012;51.998;7.614;2023-03-23T06:03:49;7.82;;;5.30;;
23670;SDS011;12012;51.998;7.614;2023-03-23T06:06:18;7.35;;;4.53;;
23670;SDS011;12012;51.998;7.614;2023-03-23T06:08:45;7.47;;;4.65;;
23670;SDS011;12012;51.998;7.614;2023-03-23T06:11:10;5.35;;;4.20;;
23670;SDS011;12012;51.998;7.614;2023-03-23T06:13:36;4.93;;;4.28;;
23670;SDS011;12012;51.998;7.614;2023-03-23T06:16:02;5.97;;;4.25;;
23670;SDS011;12012;51.998;7.614;2023-03-23T06:18:29;5.63;;;4.10;;
23670;SDS011;12012;51.998;7.614;2023-03-23T06:20:58;7.63;;;4.30;;
23670;SDS011;12012;51.998;7.614;2023-03-23T06:23:24;4.75;;;3.65;;
23670;SDS011;12012;51.998;7.614;2023-03-23T06:25:53;6.85;;;4.40;;
23670;SDS011;12012;51.998;7.614;2023-03-23T06:28:22;8.00;;;4.00;;
23670;SDS011;12012;51.998;7.614;2023-03-23T06:30:47;6.55;;;3.60;;
23670;SDS011;12012;51.998;7.614;2023-03-23T06:33:14;7.35;;;4.07;;
23670;SDS011;12012;51.998;7.614;2023-03-23T06:35:40;6.25;;;4.03;;
23670;SDS011;12012;51.998;7.614;2023-03-23T06:38:05;7.28;;;3.97;;
23670;SDS011;12012;51.998;7.614;2023-03-23T06:40:31;6.18;;;3.58;;
23670;SDS011;12012;51.998;7.614;2023-03-23T06:42:57;5.85;;;3.97;;
23670;SDS011;12012;51.998;7.614;2023-03-23T06:45:24;7.50;;;4.18;;
23670;SDS011;12012;51.998;7.614;2023-03-23T06:47:50;7.88;;;4.28;;
23670;SDS011;12012;51.998;7.614;2023-03-23T06:50:16;7.43;;;4.13;;
23670;SDS011;12012;51.998;7.614;2023-03-23T06:52:45;6.07;;;4.35;;
23670;SDS011;12012;51.998;7.614;2023-03-23T06:55:11;6.80;;;3.70;;
23670;SDS011;12012;51.998;7.614;2023-03-23T06:57:38;5.43;;;3.92;;
23670;SDS011;12012;51.998;7.614;2023-03-23T07:00:04;6.03;;;3.50;;
23670;SDS011;12012;51.998;7.614;2023-03-23T07:02:32;5.60;;;3.40;;
23670;SDS011;12012;51.998;7.614;2023-03-23T07:04:59;7.30;;;3.72;;
23670;SDS011;12012;51.998;7.614;2023-03-23T07:07:25;9.65;;;4.38;;
23670;SDS011;12012;51.998;7.614;2023-03-23T07:09:51;6.32;;;3.90;;
23670;SDS011;12012;51.998;7.614;2023-03-23T07:12:16;5.82;;;4.00;;
23670;SDS011;12012;51.998;7.614;2023-03-23T07:14:42;6.65;;;4.00;;
23670;SDS011;12012;51.998;7.614;2023-03-23T07:17:08;7.57;;;3.92;;
23670;SDS011;12012;51.998;7.614;2023-03-23T07:19:34;7.00;;;4.15;;
23670;SDS011;12012;51.998;7.614;2023-03-23T07:22:01;6.57;;;3.80;;
23670;SDS011;12012;51.998;7.614;2023-03-23T07:24:26;6.38;;;4.25;;
23670;SDS011;12012;51.998;7.614;2023-03-23T07:26:52;11.43;;;4.40;;
23670;SDS011;12012;51.998;7.614;2023-03-23T07:29:18;8.00;;;4.03;;
23670;SDS011;12012;51.998;7.614;2023-03-23T07:31:43;8.63;;;3.70;;
23670;SDS011;12012;51.998;7.614;2023-03-23T07:34:09;7.38;;;3.80;;
23670;SDS011;12012;51.998;7.614;2023-03-23T07:36:35;7.70;;;3.40;;
23670;SDS011;12012;51.998;7.614;2023-03-23T07:39:02;7.45;;;3.72;;
23670;SDS011;12012;51.998;7.614;2023-03-23T07:41:30;6.05;;;3.30;;
23670;SDS011;12012;51.998;7.614;2023-03-23T07:43:56;7.55;;;3.55;;
23670;SDS011;12012;51.998;7.614;2023-03-23T07:46:22;7.95;;;3.50;;
23670;SDS011;12012;51.998;7.614;2023-03-23T07:48:48;7.28;;;3.80;;
23670;SDS011;12012;51.998;7.614;2023-03-23T07:51:14;5.75;;;3.22;;
23670;SDS011;12012;51.998;7.614;2023-03-23T07:53:41;6.78;;;3.60;;
23670;SDS011;12012;51.998;7.614;2023-03-23T07:56:09;10.70;;;3.72;;
23670;SDS011;12012;51.998;7.614;2023-03-23T07:58:36;7.53;;;3.28;;
23670;SDS011;12012;51.998;7.614;2023-03-23T08:01:02;8.05;;;3.45;;
23670;SDS011;12012;51.998;7.614;2023-03-23T08:03:28;9.20;;;4.03;;
23670;SDS011;12012;51.998;7.614;2023-03-23T08:05:56;6.65;;;3.33;;
23670;SDS011;12012;51.998;7.614;2023-03-23T08:08:23;5.80;;;3.40;;
23670;SDS011;12012;51.998;7.614;2023-03-23T08:10:49;7.35;;;3.42;;
23670;SDS011;12012;51.998;7.614;2023-03-23T08:13:15;4.57;;;2.88;;
23670;SDS011;12012;51.998;7.614;2023-03-23T08:15:41;7.22;;;3.13;;
23670;SDS011;12012;51.998;7.614;2023-03-23T08:18:08;8.68;;;3.60;;
23670;SDS011;12012;51.998;7.614;2023-03-23T08:20:34;5.75;;;3.30;;
23670;SDS011;12012;51.998;7.614;2023-03-23T08:23:00;8.50;;;3.60;;
23670;SDS011;12012;51.998;7.614;2023-03-23T08:25:27;10.15;;;3.63;;
23670;SDS011;12012;51.998;7.614;2023-03-23T08:27:56;8.38;;;3.85;;
23670;SDS011;12012;51.998;7.614;2023-03-23T08:30:22;13.23;;;4.18;;
23670;SDS011;12012;51.998;7.614;2023-03-23T08:32:48;6.60;;;3.08;;
23670;SDS011;12012;51.998;7.614;2023-03-23T08:35:15;10.63;;;3.85;;
23670;SDS011;12012;51.998;7.614;2023-03-23T08:37:41;6.50;;;3.28;;
23670;SDS011;12012;51.998;7.614;2023-03-23T08:40:07;7.57;;;3.33;;
23670;SDS011;12012;51.998;7.614;2023-03-23T08:42:35;9.60;;;3.63;;
23670;SDS011;12012;51.998;7.614;2023-03-23T08:45:05;8.40;;;3.58;;
23670;SDS011;12012;51.998;7.614;2023-03-23T08:47:33;8.10;;;3.50;;
23670;SDS011;12012;51.998;7.614;2023-03-23T08:50:00;8.70;;;3.53;;
23670;SDS011;12012;51.998;7.614;2023-03-23T08:52:26;9.45;;;3.67;;
23670;SDS011;12012;51.998;7.614;2023-03-23T08:54:53;10.18;;;3.58;;
23670;SDS011;12012;51.998;7.614;2023-03-23T08:57:19;7.75;;;3.70;;
23670;SDS011;12012;51.998;7.614;2023-03-23T08:59:45;5.50;;;3.20;;
23670;SDS011;12012;51.998;7.614;2023-03-23T09:02:11;7.35;;;3.33;;
23670;SDS011;12012;51.998;7.614;2023-03-23T09:04:37;5.45;;;3.40;;
23670;SDS011;12012;51.998;7.614;2023-03-23T09:07:04;8.73;;;4.00;;
23670;SDS011;12012;51.998;7.614;2023-03-23T09:09:31;8.95;;;4.13;;
23670;SDS011;12012;51.998;7.614;2023-03-23T09:11:59;7.13;;;3.97;;
23670;SDS011;12012;51.998;7.614;2023-03-23T09:14:24;7.72;;;3.63;;
23670;SDS011;12012;51.998;7.614;2023-03-23T09:16:50;9.57;;;4.32;;
23670;SDS011;12012;51.998;7.614;2023-03-23T09:19:16;9.45;;;4.00;;
23670;SDS011;12012;51.998;7.614;2023-03-23T09:21:41;9.75;;;4.05;;
23670;SDS011;12012;51.998;7.614;2023-03-23T09:24:07;8.68;;;4.18;;
23670;SDS011;12012;51.998;7.614;2023-03-23T09:26:32;9.93;;;4.15;;
23670;SDS011;12012;51.998;7.614;2023-03-23T09:28:58;11.18;;;4.55;;
23670;SDS011;12012;51.998;7.614;2023-03-23T09:31:24;9.95;;;4.20;;
23670;SDS011;12012;51.998;7.614;2023-03-23T09:33:51;11.75;;;3.88;;
23670;SDS011;12012;51.998;7.614;2023-03-23T09:36:20;10.07;;;4.80;;
23670;SDS011;12012;51.998;7.614;2023-03-23T09:38:46;12.70;;;5.00;;
23670;SDS011;12012;51.998;7.614;2023-03-23T09:41:33;11.57;;;4.20;;
23670;SDS011;12012;51.998;7.614;2023-03-23T09:47:16;4.85;;;2.50;;
23670;SDS011;12012;51.998;7.614;2023-03-23T09:49:48;5.85;;;2.15;;
23670;SDS011;12012;51.998;7.614;2023-03-23T09:52:19;4.75;;;1.67;;
23670;SDS011;12012;51.998;7.614;2023-03-23T09:54:46;4.10;;;1.13;;
23670;SDS011;12012;51.998;7.614;2023-03-23T10:02:35;2.38;;;1.23;;
23670;SDS011;12012;51.998;7.614;2023-03-23T10:05:25;1.35;;;1.00;;
23670;SDS011;12012;51.998;7.614;2023-03-23T10:07:57;2.25;;;0.80;;
23670;SDS011;12012;51.998;7.614;2023-03-23T10:10:31;2.08;;;0.93;;
23670;SDS011;12012;51.998;7.614;2023-03-23T10:13:11;1.00;;;0.70;;
23670;SDS011;12012;51.998;7.614;2023-03-23T10:15:47;2.67;;;0.77;;
23670;SDS011;12012;51.998;7.614;2023-03-23T10:20:55;1.77;;;0.77;;
23670;SDS011;12012;51.998;7.614;2023-03-23T10:26:11;2.15;;;0.75;;
23670;SDS011;12012;51.998;7.614;2023-03-23T10:28:47;1.73;;;1.00;;
23670;SDS011;12012;51.998;7.614;2023-03-23T10:31:22;1.45;;;0.82;;
23670;SDS011;12012;51.998;7.614;2023-03-23T10:34:12;3.47;;;1.00;;
23670;SDS011;12012;51.998;7.614;2023-03-23T10:39:51;2.47;;;1.15;;
23670;SDS011;12012;51.998;7.614;2023-03-23T10:42:53;3.10;;;0.90;;
23670;SDS011;12012;51.998;7.614;2023-03-23T10:45:27;2.08;;;1.15;;
23670;SDS011;12012;51.998;7.614;2023-03-23T10:50:36;3.97;;;1.25;;
23670;SDS011;12012;51.998;7.614;2023-03-23T10:53:10;3.13;;;1.02;;
23670;SDS011;12012;51.998;7.614;2023-03-23T10:55:48;3.85;;;1.10;;
23670;SDS011;12012;51.998;7.614;2023-03-23T11:00:57;3.17;;;1.25;;
23670;SDS011;12012;51.998;7.614;2023-03-23T11:03:33;4.50;;;1.05;;
23670;SDS011;12012;51.998;7.614;2023-03-23T11:06:23;3.40;;;1.20;;
23670;SDS011;12012;51.998;7.614;2023-03-23T11:08:55;2.92;;;1.20;;
23670;SDS011;12012;51.998;7.614;2023-03-23T11:11:27;4.03;;;1.10;;
23670;SDS011;12012;51.998;7.614;2023-03-23T11:16:26;4.60;;;1.40;;
23670;SDS011;12012;51.998;7.614;2023-03-23T11:18:54;4.70;;;1.10;;
23670;SDS011;12012;51.998;7.614;2023-03-23T11:21:20;3.10;;;1.40;;
23670;SDS011;12012;51.998;7.614;2023-03-23T11:23:55;8.38;;;1.75;;
23670;SDS011;12012;51.998;7.614;2023-03-23T11:26:30;5.68;;;1.20;;
23670;SDS011;12012;51.998;7.614;2023-03-23T11:31:43;3.75;;;1.75;;
23670;SDS011;12012;51.998;7.614;2023-03-23T11:34:11;3.55;;;1.42;;
23670;SDS011;12012;51.998;7.614;2023-03-23T11:39:20;5.88;;;1.30;;
23670;SDS011;12012;51.998;7.614;2023-03-23T11:41:49;5.70;;;1.60;;
23670;SDS011;12012;51.998;7.614;2023-03-23T11:44:15;6.38;;;1.60;;
23670;SDS011;12012;51.998;7.614;2023-03-23T11:46:47;2.15;;;1.00;;
23670;SDS011;12012;51.998;7.614;2023-03-23T11:49:26;5.63;;;1.63;;
23670;SDS011;12012;51.998;7.614;2023-03-23T11:52:16;5.90;;;1.65;;
23670;SDS011;12012;51.998;7.614;2023-03-23T11:57:42;3.55;;;1.20;;
23670;SDS011;12012;51.998;7.614;2023-03-23T12:00:19;3.22;;;1.27;;
23670;SDS011;12012;51.998;7.614;2023-03-23T12:22:31;5.05;;;1.02;;
23670;SDS011;12012;51.998;7.614;2023-03-23T12:33:21;3.20;;;1.23;;
23670;SDS011;12012;51.998;7.614;2023-03-23T12:38:42;3.80;;;1.20;;
23670;SDS011;12012;51.998;7.614;2023-03-23T12:41:17;1.42;;;1.00;;
23670;SDS011;12012;51.998;7.614;2023-03-23T12:44:02;3.17;;;1.30;;
23670;SDS011;12012;51.998;7.614;2023-03-23T12:57:12;1.85;;;1.08;;
23670;SDS011;12012;51.998;7.614;2023-03-23T12:59:57;2.05;;;1.02;;
23670;SDS011;12012;51.998;7.614;2023-03-23T13:02:27;1.80;;;1.00;;
23670;SDS011;12012;51.998;7.614;2023-03-23T13:05:00;1.52;;;0.88;;
23670;SDS011;12012;51.998;7.614;2023-03-23T13:07:39;2.20;;;1.20;;
23670;SDS011;12012;51.998;7.614;2023-03-23T13:10:18;1.75;;;1.08;;
23670;SDS011;12012;51.998;7.614;2023-03-23T13:12:51;3.47;;;1.40;;
23670;SDS011;12012;51.998;7.614;2023-03-23T13:26:11;4.75;;;1.40;;
23670;SDS011;12012;51.998;7.614;2023-03-23T13:31:37;2.45;;;1.30;;
23670;SDS011;12012;51.998;7.614;2023-03-23T13:36:40;2.58;;;1.58;;
23670;SDS011;12012;51.998;7.614;2023-03-23T13:39:18;4.03;;;1.50;;
23670;SDS011;12012;51.998;7.614;2023-03-23T13:41:58;2.10;;;1.20;;
23670;SDS011;12012;51.998;7.614;2023-03-23T13:44:39;2.38;;;1.50;;
23670;SDS011;12012;51.998;7.614;2023-03-23T13:47:21;8.15;;;2.22;;
23670;SDS011;12012;51.998;7.614;2023-03-23T13:49:58;3.25;;;1.17;;
23670;SDS011;12012;51.998;7.614;2023-03-23T14:05:31;5.60;;;1.80;;
23670;SDS011;12012;51.998;7.614;2023-03-23T14:10:51;2.13;;;1.92;;
23670;SDS011;12012;51.998;7.614;2023-03-23T14:13:25;3.60;;;1.83;;
23670;SDS011;12012;51.998;7.614;2023-03-23T14:18:31;3.42;;;2.05;;
23670;SDS011;12012;51.998;7.614;2023-03-23T14:21:02;5.30;;;2.00;;
23670;SDS011;12012;51.998;7.614;2023-03-23T14:23:30;5.15;;;1.98;;
23670;SDS011;12012;51.998;7.614;2023-03-23T14:26:10;6.45;;;2.00;;
23670;SDS011;12012;51.998;7.614;2023-03-23T14:28:42;4.13;;;2.40;;
23670;SDS011;12012;51.998;7.614;2023-03-23T14:31:14;3.75;;;2.33;;
23670;SDS011;12012;51.998;7.614;2023-03-23T14:33:46;4.15;;;2.40;;
23670;SDS011;12012;51.998;7.614;2023-03-23T14:36:13;4.97;;;2.40;;
23670;SDS011;12012;51.998;7.614;2023-03-23T14:38:44;5.18;;;3.00;;
23670;SDS011;12012;51.998;7.614;2023-03-23T14:41:10;4.82;;;3.40;;
23670;SDS011;12012;51.998;7.614;2023-03-23T14:43:37;5.80;;;3.60;;
23670;SDS011;12012;51.998;7.614;2023-03-23T14:46:05;4.78;;;3.83;;
23670;SDS011;12012;51.998;7.614;2023-03-23T14:48:32;4.68;;;3.88;;
23670;SDS011;12012;51.998;7.614;2023-03-23T14:51:00;4.88;;;3.35;;
23670;SDS011;12012;51.998;7.614;2023-03-23T14:56:10;4.95;;;3.72;;
23670;SDS011;12012;51.998;7.614;2023-03-23T14:58:38;5.20;;;3.55;;
23670;SDS011;12012;51.998;7.614;2023-03-23T15:01:11;5.68;;;4.03;;
23670;SDS011;12012;51.998;7.614;2023-03-23T15:03:59;6.68;;;3.75;;
23670;SDS011;12012;51.998;7.614;2023-03-23T15:06:28;6.70;;;3.58;;
23670;SDS011;12012;51.998;7.614;2023-03-23T15:08:58;7.28;;;3.78;;
23670;SDS011;12012;51.998;7.614;2023-03-23T15:11:30;6.43;;;3.75;;
23670;SDS011;12012;51.998;7.614;2023-03-23T15:14:00;6.90;;;3.90;;
23670;SDS011;12012;51.998;7.614;2023-03-23T15:16:40;7.25;;;3.88;;
23670;SDS011;12012;51.998;7.614;2023-03-23T15:21:52;7.57;;;3.42;;
23670;SDS011;12012;51.998;7.614;2023-03-23T15:26:53;7.57;;;4.05;;
23670;SDS011;12012;51.998;7.614;2023-03-23T15:29:27;7.65;;;3.97;;
23670;SDS011;12012;51.998;7.614;2023-03-23T15:31:53;13.13;;;4.22;;
23670;SDS011;12012;51.998;7.614;2023-03-23T15:37:04;7.68;;;4.05;;
23670;SDS011;12012;51.998;7.614;2023-03-23T15:39:41;7.43;;;3.42;;
23670;SDS011;12012;51.998;7.614;2023-03-23T15:42:07;12.27;;;4.28;;
23670;SDS011;12012;51.998;7.614;2023-03-23T15:44:56;8.60;;;4.63;;
23670;SDS011;12012;51.998;7.614;2023-03-23T15:47:33;7.82;;;3.83;;
23670;SDS011;12012;51.998;7.614;2023-03-23T15:52:39;8.48;;;4.65;;
23670;SDS011;12012;51.998;7.614;2023-03-23T15:55:20;9.10;;;4.55;;
23670;SDS011;12012;51.998;7.614;2023-03-23T15:58:00;9.25;;;4.65;;
23670;SDS011;12012;51.998;7.614;2023-03-23T16:00:30;7.45;;;4.18;;
23670;SDS011;12012;51.998;7.614;2023-03-23T16:02:57;7.32;;;4.80;;
23670;SDS011;12012;51.998;7.614;2023-03-23T16:05:25;10.55;;;5.32;;
23670;SDS011;12012;51.998;7.614;2023-03-23T16:07:52;11.23;;;5.50;;
23670;SDS011;12012;51.998;7.614;2023-03-23T16:10:19;7.65;;;5.20;;
23670;SDS011;12012;51.998;7.614;2023-03-23T16:12:46;9.48;;;5.82;;
23670;SDS011;12012;51.998;7.614;2023-03-23T16:15:12;7.82;;;5.60;;
23670;SDS011;12012;51.998;7.614;2023-03-23T16:17:39;8.98;;;5.15;;
23670;SDS011;12012;51.998;7.614;2023-03-23T16:20:23;9.02;;;5.55;;
23670;SDS011;12012;51.998;7.614;2023-03-23T16:22:50;9.23;;;4.75;;
23670;SDS011;12012;51.998;7.614;2023-03-23T16:25:16;7.32;;;5.13;;
23670;SDS011;12012;51.998;7.614;2023-03-23T16:27:43;8.60;;;4.38;;
23670;SDS011;12012;51.998;7.614;2023-03-23T16:30:25;9.75;;;4.72;;
23670;SDS011;12012;51.998;7.614;2023-03-23T16:32:52;8.50;;;4.45;;
23670;SDS011;12012;51.998;7.614;2023-03-23T16:35:18;7.43;;;4.00;;
23670;SDS011;12012;51.998;7.614;2023-03-23T16:37:50;7.78;;;4.25;;
23670;SDS011;12012;51.998;7.614;2023-03-23T16:40:20;5.32;;;3.95;;
23670;SDS011;12012;51.998;7.614;2023-03-23T16:42:46;5.65;;;3.60;;
23670;SDS011;12012;51.998;7.614;2023-03-23T16:45:13;8.32;;;3.70;;
23670;SDS011;12012;51.998;7.614;2023-03-23T16:47:39;6.07;;;3.88;;
23670;SDS011;12012;51.998;7.614;2023-03-23T16:50:06;7.25;;;4.35;;
23670;SDS011;12012;51.998;7.614;2023-03-23T16:52:35;7.00;;;4.30;;
23670;SDS011;12012;51.998;7.614;2023-03-23T16:55:06;8.68;;;4.10;;
23670;SDS011;12012;51.998;7.614;2023-03-23T16:57:33;8.65;;;4.55;;
23670;SDS011;12012;51.998;7.614;2023-03-23T17:00:01;11.25;;;5.97;;
23670;SDS011;12012;51.998;7.614;2023-03-23T17:02:30;7.88;;;6.90;;
23670;SDS011;12012;51.998;7.614;2023-03-23T17:04:56;11.35;;;8.52;;
23670;SDS011;12012;51.998;7.614;2023-03-23T17:07:22;14.48;;;9.50;;
23670;SDS011;12012;51.998;7.614;2023-03-23T17:09:48;12.27;;;7.97;;
23670;SDS011;12012;51.998;7.614;2023-03-23T17:12:13;9.60;;;7.70;;
23670;SDS011;12012;51.998;7.614;2023-03-23T17:14:40;10.60;;;7.60;;
23670;SDS011;12012;51.998;7.614;2023-03-23T17:17:06;11.27;;;8.73;;
23670;SDS011;12012;51.998;7.614;2023-03-23T17:19:31;14.48;;;9.10;;
23670;SDS011;12012;51.998;7.614;2023-03-23T17:21:57;14.30;;;9.68;;